sensor_id;sensor_type;location;lat;lon;timestamp;P1;durP1;ratioP1;P2;durP2;ratioP2
54805;SDS011;62866;55.776;37.496;2023-04-30T00:00:50;9.38;;;4.72;;
54805;SDS011;62866;55.776;37.496;2023-04-30T00:03:16;16.00;;;5.18;;
54805;SDS011;62866;55.776;37.496;2023-04-30T00:05:42;13.13;;;4.60;;
54805;SDS011;62866;55.776;37.496;2023-04-30T00:08:07;15.68;;;4.53;;
54805;SDS011;62866;55.776;37.496;2023-04-30T00:10:33;14.38;;;4.63;;
54805;SDS011;62866;55.776;37.496;2023-04-30T00:12:58;12.52;;;4.78;;
54805;SDS011;62866;55.776;37.496;2023-04-30T00:15:24;9.63;;;4.50;;
54805;SDS011;62866;55.776;37.496;2023-04-30T00:17:50;15.25;;;4.50;;
54805;SDS011;62866;55.776;37.496;2023-04-30T00:20:15;12.38;;;4.57;;
54805;SDS011;62866;55.776;37.496;2023-04-30T00:22:41;12.02;;;4.50;;
54805;SDS011;62866;55.776;37.496;2023-04-30T00:25:06;9.77;;;4.53;;
54805;SDS011;62866;55.776;37.496;2023-04-30T00:27:33;11.00;;;4.55;;
54805;SDS011;62866;55.776;37.496;2023-04-30T00:29:58;10.15;;;4.82;;
54805;SDS011;62866;55.776;37.496;2023-04-30T00:32:24;10.57;;;4.35;;
54805;SDS011;62866;55.776;37.496;2023-04-30T00:34:50;16.20;;;4.93;;
54805;SDS011;62866;55.776;37.496;2023-04-30T00:37:15;9.15;;;4.30;;
54805;SDS011;62866;55.776;37.496;2023-04-30T00:39:41;12.73;;;4.47;;
54805;SDS011;62866;55.776;37.496;2023-04-30T00:42:06;16.00;;;4.75;;
54805;SDS011;62866;55.776;37.496;2023-04-30T00:44:32;15.32;;;5.32;;
54805;SDS011;62866;55.776;37.496;2023-04-30T00:46:57;12.68;;;4.68;;
54805;SDS011;62866;55.776;37.496;2023-04-30T00:49:23;14.18;;;4.97;;
54805;SDS011;62866;55.776;37.496;2023-04-30T00:51:48;10.80;;;4.65;;
54805;SDS011;62866;55.776;37.496;2023-04-30T00:54:15;14.05;;;5.15;;
54805;SDS011;62866;55.776;37.496;2023-04-30T00:56:40;10.70;;;5.30;;
54805;SDS011;62866;55.776;37.496;2023-04-30T00:59:06;13.20;;;5.28;;
54805;SDS011;62866;55.776;37.496;2023-04-30T01:01:33;18.13;;;6.05;;
54805;SDS011;62866;55.776;37.496;2023-04-30T01:03:58;14.82;;;5.00;;
54805;SDS011;62866;55.776;37.496;2023-04-30T01:06:25;19.20;;;5.80;;
54805;SDS011;62866;55.776;37.496;2023-04-30T01:08:52;18.52;;;6.45;;
54805;SDS011;62866;55.776;37.496;2023-04-30T01:17:07;14.93;;;5.97;;
54805;SDS011;62866;55.776;37.496;2023-04-30T01:19:42;19.38;;;5.32;;
54805;SDS011;62866;55.776;37.496;2023-04-30T01:22:11;19.88;;;6.38;;
54805;SDS011;62866;55.776;37.496;2023-04-30T01:30:38;12.85;;;4.57;;
54805;SDS011;62866;55.776;37.496;2023-04-30T01:33:08;13.48;;;4.90;;
54805;SDS011;62866;55.776;37.496;2023-04-30T01:41:19;13.18;;;4.97;;
54805;SDS011;62866;55.776;37.496;2023-04-30T01:44:12;14.75;;;4.15;;
54805;SDS011;62866;55.776;37.496;2023-04-30T01:46:42;15.73;;;5.00;;
54805;SDS011;62866;55.776;37.496;2023-04-30T01:49:23;13.93;;;5.13;;
54805;SDS011;62866;55.776;37.496;2023-04-30T01:51:52;16.13;;;5.05;;
54805;SDS011;62866;55.776;37.496;2023-04-30T01:57:40;11.40;;;4.55;;
54805;SDS011;62866;55.776;37.496;2023-04-30T02:00:09;16.83;;;5.90;;
54805;SDS011;62866;55.776;37.496;2023-04-30T02:02:36;18.05;;;5.93;;
54805;SDS011;62866;55.776;37.496;2023-04-30T02:05:01;15.32;;;5.10;;
54805;SDS011;62866;55.776;37.496;2023-04-30T02:07:40;16.38;;;5.30;;
54805;SDS011;62866;55.776;37.496;2023-04-30T02:10:10;15.13;;;5.30;;
54805;SDS011;62866;55.776;37.496;2023-04-30T02:12:36;15.95;;;5.57;;
54805;SDS011;62866;55.776;37.496;2023-04-30T02:15:03;14.38;;;5.28;;
54805;SDS011;62866;55.776;37.496;2023-04-30T02:17:30;18.85;;;5.88;;
54805;SDS011;62866;55.776;37.496;2023-04-30T02:19:56;10.63;;;4.95;;
54805;SDS011;62866;55.776;37.496;2023-04-30T02:22:22;11.77;;;5.20;;
54805;SDS011;62866;55.776;37.496;2023-04-30T02:24:48;14.60;;;4.93;;
54805;SDS011;62866;55.776;37.496;2023-04-30T02:27:14;13.70;;;5.15;;
54805;SDS011;62866;55.776;37.496;2023-04-30T02:29:39;17.52;;;5.53;;
54805;SDS011;62866;55.776;37.496;2023-04-30T02:32:05;14.77;;;4.97;;
54805;SDS011;62866;55.776;37.496;2023-04-30T02:34:31;13.00;;;5.18;;
54805;SDS011;62866;55.776;37.496;2023-04-30T02:36:56;13.20;;;5.10;;
54805;SDS011;62866;55.776;37.496;2023-04-30T02:39:22;11.60;;;4.50;;
54805;SDS011;62866;55.776;37.496;2023-04-30T02:41:47;11.00;;;5.55;;
54805;SDS011;62866;55.776;37.496;2023-04-30T02:44:13;16.35;;;5.72;;
54805;SDS011;62866;55.776;37.496;2023-04-30T02:46:38;12.20;;;5.35;;
54805;SDS011;62866;55.776;37.496;2023-04-30T02:49:04;8.90;;;4.68;;
54805;SDS011;62866;55.776;37.496;2023-04-30T02:51:29;13.65;;;5.13;;
54805;SDS011;62866;55.776;37.496;2023-04-30T02:53:56;15.23;;;5.25;;
54805;SDS011;62866;55.776;37.496;2023-04-30T02:56:22;11.70;;;4.65;;
54805;SDS011;62866;55.776;37.496;2023-04-30T02:58:47;14.05;;;5.07;;
54805;SDS011;62866;55.776;37.496;2023-04-30T03:01:13;12.55;;;5.35;;
54805;SDS011;62866;55.776;37.496;2023-04-30T03:03:39;9.20;;;4.57;;
54805;SDS011;62866;55.776;37.496;2023-04-30T03:06:05;16.30;;;5.30;;
54805;SDS011;62866;55.776;37.496;2023-04-30T03:08:30;9.07;;;4.55;;
54805;SDS011;62866;55.776;37.496;2023-04-30T03:10:56;11.80;;;5.13;;
54805;SDS011;62866;55.776;37.496;2023-04-30T03:13:21;12.65;;;5.63;;
54805;SDS011;62866;55.776;37.496;2023-04-30T03:16:00;14.85;;;5.72;;
54805;SDS011;62866;55.776;37.496;2023-04-30T03:18:27;9.77;;;5.22;;
54805;SDS011;62866;55.776;37.496;2023-04-30T03:20:53;11.15;;;5.43;;
54805;SDS011;62866;55.776;37.496;2023-04-30T03:23:18;13.43;;;5.13;;
54805;SDS011;62866;55.776;37.496;2023-04-30T03:25:44;17.27;;;5.95;;
54805;SDS011;62866;55.776;37.496;2023-04-30T03:28:10;16.60;;;6.28;;
54805;SDS011;62866;55.776;37.496;2023-04-30T03:30:35;17.60;;;6.30;;
54805;SDS011;62866;55.776;37.496;2023-04-30T03:33:01;15.10;;;6.57;;
54805;SDS011;62866;55.776;37.496;2023-04-30T03:35:26;19.98;;;8.70;;
54805;SDS011;62866;55.776;37.496;2023-04-30T03:37:52;19.23;;;7.60;;
54805;SDS011;62866;55.776;37.496;2023-04-30T03:40:17;22.50;;;7.38;;
54805;SDS011;62866;55.776;37.496;2023-04-30T03:42:43;13.15;;;6.80;;
54805;SDS011;62866;55.776;37.496;2023-04-30T03:45:09;18.48;;;8.90;;
54805;SDS011;62866;55.776;37.496;2023-04-30T03:47:35;18.23;;;8.98;;
54805;SDS011;62866;55.776;37.496;2023-04-30T03:50:01;18.77;;;7.65;;
54805;SDS011;62866;55.776;37.496;2023-04-30T03:52:28;19.48;;;8.30;;
54805;SDS011;62866;55.776;37.496;2023-04-30T03:54:53;18.52;;;7.63;;
54805;SDS011;62866;55.776;37.496;2023-04-30T03:57:19;21.52;;;8.27;;
54805;SDS011;62866;55.776;37.496;2023-04-30T03:59:45;16.73;;;7.97;;
54805;SDS011;62866;55.776;37.496;2023-04-30T04:02:11;16.67;;;7.07;;
54805;SDS011;62866;55.776;37.496;2023-04-30T04:04:36;17.77;;;8.80;;
54805;SDS011;62866;55.776;37.496;2023-04-30T04:07:02;16.88;;;8.15;;
54805;SDS011;62866;55.776;37.496;2023-04-30T04:09:28;15.93;;;8.75;;
54805;SDS011;62866;55.776;37.496;2023-04-30T04:11:53;16.70;;;8.25;;
54805;SDS011;62866;55.776;37.496;2023-04-30T04:14:19;14.18;;;6.65;;
54805;SDS011;62866;55.776;37.496;2023-04-30T04:16:45;16.90;;;8.82;;
54805;SDS011;62866;55.776;37.496;2023-04-30T04:19:11;19.20;;;8.32;;
54805;SDS011;62866;55.776;37.496;2023-04-30T04:21:39;17.83;;;8.75;;
54805;SDS011;62866;55.776;37.496;2023-04-30T04:24:05;18.55;;;9.00;;
54805;SDS011;62866;55.776;37.496;2023-04-30T04:26:35;12.10;;;5.25;;
54805;SDS011;62866;55.776;37.496;2023-04-30T04:29:01;10.57;;;5.60;;
54805;SDS011;62866;55.776;37.496;2023-04-30T04:31:28;13.75;;;7.68;;
54805;SDS011;62866;55.776;37.496;2023-04-30T04:33:55;13.82;;;6.85;;
54805;SDS011;62866;55.776;37.496;2023-04-30T04:36:24;7.38;;;3.95;;
54805;SDS011;62866;55.776;37.496;2023-04-30T04:38:53;8.68;;;4.78;;
54805;SDS011;62866;55.776;37.496;2023-04-30T04:41:19;9.50;;;4.78;;
54805;SDS011;62866;55.776;37.496;2023-04-30T04:43:45;12.80;;;5.90;;
54805;SDS011;62866;55.776;37.496;2023-04-30T04:46:11;15.55;;;7.85;;
54805;SDS011;62866;55.776;37.496;2023-04-30T04:48:40;8.18;;;3.72;;
54805;SDS011;62866;55.776;37.496;2023-04-30T04:51:06;9.95;;;5.55;;
54805;SDS011;62866;55.776;37.496;2023-04-30T04:53:31;14.48;;;7.97;;
54805;SDS011;62866;55.776;37.496;2023-04-30T04:55:57;10.10;;;5.43;;
54805;SDS011;62866;55.776;37.496;2023-04-30T04:58:22;14.27;;;6.75;;
54805;SDS011;62866;55.776;37.496;2023-04-30T05:00:48;12.00;;;5.65;;
54805;SDS011;62866;55.776;37.496;2023-04-30T05:03:14;13.55;;;6.32;;
54805;SDS011;62866;55.776;37.496;2023-04-30T05:05:39;11.15;;;6.50;;
54805;SDS011;62866;55.776;37.496;2023-04-30T05:08:05;16.63;;;7.57;;
54805;SDS011;62866;55.776;37.496;2023-04-30T05:10:30;9.05;;;4.18;;
54805;SDS011;62866;55.776;37.496;2023-04-30T05:12:56;14.32;;;6.15;;
54805;SDS011;62866;55.776;37.496;2023-04-30T05:15:21;6.20;;;4.65;;
54805;SDS011;62866;55.776;37.496;2023-04-30T05:17:47;10.70;;;6.43;;
54805;SDS011;62866;55.776;37.496;2023-04-30T05:20:12;8.00;;;4.47;;
54805;SDS011;62866;55.776;37.496;2023-04-30T05:22:38;10.30;;;5.60;;
54805;SDS011;62866;55.776;37.496;2023-04-30T05:25:03;8.07;;;4.85;;
54805;SDS011;62866;55.776;37.496;2023-04-30T05:27:30;13.45;;;5.18;;
54805;SDS011;62866;55.776;37.496;2023-04-30T05:29:55;7.30;;;5.25;;
54805;SDS011;62866;55.776;37.496;2023-04-30T05:32:21;8.38;;;4.90;;
54805;SDS011;62866;55.776;37.496;2023-04-30T05:34:47;5.78;;;3.63;;
54805;SDS011;62866;55.776;37.496;2023-04-30T05:37:13;7.07;;;3.92;;
54805;SDS011;62866;55.776;37.496;2023-04-30T05:39:40;8.40;;;4.75;;
54805;SDS011;62866;55.776;37.496;2023-04-30T05:42:06;4.70;;;2.70;;
54805;SDS011;62866;55.776;37.496;2023-04-30T05:44:31;5.75;;;3.90;;
54805;SDS011;62866;55.776;37.496;2023-04-30T05:46:57;9.98;;;5.90;;
54805;SDS011;62866;55.776;37.496;2023-04-30T05:49:22;5.85;;;3.55;;
54805;SDS011;62866;55.776;37.496;2023-04-30T05:51:48;11.48;;;6.30;;
54805;SDS011;62866;55.776;37.496;2023-04-30T05:54:13;10.90;;;6.00;;
54805;SDS011;62866;55.776;37.496;2023-04-30T05:56:39;7.63;;;4.68;;
54805;SDS011;62866;55.776;37.496;2023-04-30T05:59:04;10.25;;;4.13;;
54805;SDS011;62866;55.776;37.496;2023-04-30T06:01:30;7.50;;;5.05;;
54805;SDS011;62866;55.776;37.496;2023-04-30T06:03:56;10.43;;;5.10;;
54805;SDS011;62866;55.776;37.496;2023-04-30T06:06:23;9.43;;;5.50;;
54805;SDS011;62866;55.776;37.496;2023-04-30T06:08:49;7.90;;;4.82;;
54805;SDS011;62866;55.776;37.496;2023-04-30T06:11:14;5.60;;;3.67;;
54805;SDS011;62866;55.776;37.496;2023-04-30T06:13:40;7.43;;;5.03;;
54805;SDS011;62866;55.776;37.496;2023-04-30T06:16:06;9.13;;;4.45;;
54805;SDS011;62866;55.776;37.496;2023-04-30T06:18:32;4.95;;;2.80;;
54805;SDS011;62866;55.776;37.496;2023-04-30T06:20:57;5.53;;;3.63;;
54805;SDS011;62866;55.776;37.496;2023-04-30T06:23:23;4.43;;;2.22;;
54805;SDS011;62866;55.776;37.496;2023-04-30T06:25:48;4.78;;;3.20;;
54805;SDS011;62866;55.776;37.496;2023-04-30T06:28:14;5.90;;;2.58;;
54805;SDS011;62866;55.776;37.496;2023-04-30T06:30:40;4.07;;;2.10;;
54805;SDS011;62866;55.776;37.496;2023-04-30T06:33:05;4.60;;;3.25;;
54805;SDS011;62866;55.776;37.496;2023-04-30T06:35:31;6.93;;;4.20;;
54805;SDS011;62866;55.776;37.496;2023-04-30T06:37:57;5.57;;;3.00;;
54805;SDS011;62866;55.776;37.496;2023-04-30T06:40:22;5.47;;;2.10;;
54805;SDS011;62866;55.776;37.496;2023-04-30T06:42:48;5.80;;;3.22;;
54805;SDS011;62866;55.776;37.496;2023-04-30T06:45:13;7.97;;;2.60;;
54805;SDS011;62866;55.776;37.496;2023-04-30T06:47:39;3.35;;;2.00;;
54805;SDS011;62866;55.776;37.496;2023-04-30T06:50:07;5.07;;;3.33;;
54805;SDS011;62866;55.776;37.496;2023-04-30T06:52:33;4.40;;;2.53;;
54805;SDS011;62866;55.776;37.496;2023-04-30T06:54:59;6.43;;;2.88;;
54805;SDS011;62866;55.776;37.496;2023-04-30T06:57:25;5.82;;;3.35;;
54805;SDS011;62866;55.776;37.496;2023-04-30T06:59:51;6.20;;;2.55;;
54805;SDS011;62866;55.776;37.496;2023-04-30T07:02:17;5.15;;;2.47;;
54805;SDS011;62866;55.776;37.496;2023-04-30T07:04:43;3.55;;;2.08;;
54805;SDS011;62866;55.776;37.496;2023-04-30T07:07:08;3.13;;;1.92;;
54805;SDS011;62866;55.776;37.496;2023-04-30T07:09:34;5.03;;;2.70;;
54805;SDS011;62866;55.776;37.496;2023-04-30T07:12:00;5.25;;;2.47;;
54805;SDS011;62866;55.776;37.496;2023-04-30T07:14:26;3.63;;;2.03;;
54805;SDS011;62866;55.776;37.496;2023-04-30T07:16:52;2.85;;;2.10;;
54805;SDS011;62866;55.776;37.496;2023-04-30T07:19:18;4.57;;;2.30;;
54805;SDS011;62866;55.776;37.496;2023-04-30T07:21:44;1.75;;;1.20;;
54805;SDS011;62866;55.776;37.496;2023-04-30T07:24:10;3.55;;;2.03;;
54805;SDS011;62866;55.776;37.496;2023-04-30T07:26:36;5.13;;;1.55;;
54805;SDS011;62866;55.776;37.496;2023-04-30T07:29:02;3.10;;;2.03;;
54805;SDS011;62866;55.776;37.496;2023-04-30T07:31:28;2.28;;;1.40;;
54805;SDS011;62866;55.776;37.496;2023-04-30T07:33:53;6.57;;;2.65;;
54805;SDS011;62866;55.776;37.496;2023-04-30T07:36:20;4.00;;;2.63;;
54805;SDS011;62866;55.776;37.496;2023-04-30T07:38:46;3.47;;;2.05;;
54805;SDS011;62866;55.776;37.496;2023-04-30T07:41:12;2.85;;;1.73;;
54805;SDS011;62866;55.776;37.496;2023-04-30T07:43:38;3.30;;;1.95;;
54805;SDS011;62866;55.776;37.496;2023-04-30T07:46:03;4.88;;;1.95;;
54805;SDS011;62866;55.776;37.496;2023-04-30T07:48:29;2.95;;;2.15;;
54805;SDS011;62866;55.776;37.496;2023-04-30T07:50:55;1.90;;;1.73;;
54805;SDS011;62866;55.776;37.496;2023-04-30T07:53:22;3.10;;;2.35;;
54805;SDS011;62866;55.776;37.496;2023-04-30T07:55:47;4.57;;;2.33;;
54805;SDS011;62866;55.776;37.496;2023-04-30T07:58:13;3.55;;;1.90;;
54805;SDS011;62866;55.776;37.496;2023-04-30T08:00:38;3.95;;;1.90;;
54805;SDS011;62866;55.776;37.496;2023-04-30T08:03:04;3.15;;;1.67;;
54805;SDS011;62866;55.776;37.496;2023-04-30T08:05:30;2.78;;;1.75;;
54805;SDS011;62866;55.776;37.496;2023-04-30T08:07:55;2.90;;;2.13;;
54805;SDS011;62866;55.776;37.496;2023-04-30T08:10:21;2.67;;;1.63;;
54805;SDS011;62866;55.776;37.496;2023-04-30T08:12:47;2.13;;;1.65;;
54805;SDS011;62866;55.776;37.496;2023-04-30T08:15:12;1.85;;;1.23;;
54805;SDS011;62866;55.776;37.496;2023-04-30T08:17:38;2.80;;;1.65;;
54805;SDS011;62866;55.776;37.496;2023-04-30T08:20:03;1.77;;;1.10;;
54805;SDS011;62866;55.776;37.496;2023-04-30T08:22:30;1.90;;;1.50;;
54805;SDS011;62866;55.776;37.496;2023-04-30T08:24:56;2.15;;;1.38;;
54805;SDS011;62866;55.776;37.496;2023-04-30T08:27:22;2.05;;;1.25;;
54805;SDS011;62866;55.776;37.496;2023-04-30T08:29:48;1.83;;;1.08;;
54805;SDS011;62866;55.776;37.496;2023-04-30T08:32:13;3.28;;;0.95;;
54805;SDS011;62866;55.776;37.496;2023-04-30T08:34:39;2.00;;;1.20;;
54805;SDS011;62866;55.776;37.496;2023-04-30T08:37:06;3.42;;;1.20;;
54805;SDS011;62866;55.776;37.496;2023-04-30T08:39:31;2.90;;;1.30;;
54805;SDS011;62866;55.776;37.496;2023-04-30T08:41:59;0.93;;;0.93;;
54805;SDS011;62866;55.776;37.496;2023-04-30T08:44:27;2.03;;;1.25;;
54805;SDS011;62866;55.776;37.496;2023-04-30T08:46:54;3.38;;;1.33;;
54805;SDS011;62866;55.776;37.496;2023-04-30T08:49:21;1.33;;;0.88;;
54805;SDS011;62866;55.776;37.496;2023-04-30T08:51:47;2.65;;;1.17;;
54805;SDS011;62866;55.776;37.496;2023-04-30T08:54:13;1.88;;;1.10;;
54805;SDS011;62866;55.776;37.496;2023-04-30T08:56:41;1.17;;;1.08;;
54805;SDS011;62866;55.776;37.496;2023-04-30T08:59:07;3.35;;;0.90;;
54805;SDS011;62866;55.776;37.496;2023-04-30T09:01:33;3.65;;;1.30;;
54805;SDS011;62866;55.776;37.496;2023-04-30T09:03:59;1.23;;;1.00;;
54805;SDS011;62866;55.776;37.496;2023-04-30T09:06:27;2.20;;;1.10;;
54805;SDS011;62866;55.776;37.496;2023-04-30T09:08:53;3.15;;;1.40;;
54805;SDS011;62866;55.776;37.496;2023-04-30T09:11:22;1.38;;;1.23;;
54805;SDS011;62866;55.776;37.496;2023-04-30T09:13:51;1.30;;;1.17;;
54805;SDS011;62866;55.776;37.496;2023-04-30T09:16:19;1.60;;;1.20;;
54805;SDS011;62866;55.776;37.496;2023-04-30T09:18:46;1.50;;;0.80;;
54805;SDS011;62866;55.776;37.496;2023-04-30T09:21:12;2.45;;;1.30;;
54805;SDS011;62866;55.776;37.496;2023-04-30T09:23:57;1.90;;;1.17;;
54805;SDS011;62866;55.776;37.496;2023-04-30T09:26:42;2.95;;;1.77;;
54805;SDS011;62866;55.776;37.496;2023-04-30T09:29:07;4.17;;;1.40;;
54805;SDS011;62866;55.776;37.496;2023-04-30T09:31:37;2.42;;;0.88;;
54805;SDS011;62866;55.776;37.496;2023-04-30T09:34:05;1.67;;;1.30;;
54805;SDS011;62866;55.776;37.496;2023-04-30T09:36:31;1.70;;;0.93;;
54805;SDS011;62866;55.776;37.496;2023-04-30T09:39:09;1.70;;;1.40;;
54805;SDS011;62866;55.776;37.496;2023-04-30T09:41:37;4.35;;;1.30;;
54805;SDS011;62866;55.776;37.496;2023-04-30T09:44:03;1.90;;;1.40;;
54805;SDS011;62866;55.776;37.496;2023-04-30T09:46:32;2.35;;;1.45;;
54805;SDS011;62866;55.776;37.496;2023-04-30T09:49:00;3.70;;;1.17;;
54805;SDS011;62866;55.776;37.496;2023-04-30T09:51:27;4.90;;;1.25;;
54805;SDS011;62866;55.776;37.496;2023-04-30T09:53:53;3.70;;;1.40;;
54805;SDS011;62866;55.776;37.496;2023-04-30T09:56:20;3.45;;;1.35;;
54805;SDS011;62866;55.776;37.496;2023-04-30T09:58:55;4.63;;;1.75;;
54805;SDS011;62866;55.776;37.496;2023-04-30T10:01:25;3.35;;;1.70;;
54805;SDS011;62866;55.776;37.496;2023-04-30T10:03:51;3.22;;;1.40;;
54805;SDS011;62866;55.776;37.496;2023-04-30T10:06:17;1.80;;;1.10;;
54805;SDS011;62866;55.776;37.496;2023-04-30T10:08:46;2.25;;;1.80;;
54805;SDS011;62866;55.776;37.496;2023-04-30T10:11:20;2.03;;;1.35;;
54805;SDS011;62866;55.776;37.496;2023-04-30T10:13:51;1.77;;;1.27;;
54805;SDS011;62866;55.776;37.496;2023-04-30T10:19:19;1.75;;;1.30;;
54805;SDS011;62866;55.776;37.496;2023-04-30T10:21:48;1.63;;;1.20;;
54805;SDS011;62866;55.776;37.496;2023-04-30T10:24:14;3.78;;;1.63;;
54805;SDS011;62866;55.776;37.496;2023-04-30T10:26:44;2.63;;;1.40;;
54805;SDS011;62866;55.776;37.496;2023-04-30T10:29:14;3.30;;;1.50;;
54805;SDS011;62866;55.776;37.496;2023-04-30T10:31:42;1.33;;;1.08;;
54805;SDS011;62866;55.776;37.496;2023-04-30T10:34:31;1.90;;;1.25;;
54805;SDS011;62866;55.776;37.496;2023-04-30T10:40:09;1.10;;;1.00;;
54805;SDS011;62866;55.776;37.496;2023-04-30T10:42:35;3.80;;;0.60;;
54805;SDS011;62866;55.776;37.496;2023-04-30T10:45:04;1.52;;;0.95;;
54805;SDS011;62866;55.776;37.496;2023-04-30T10:47:33;1.40;;;0.98;;
54805;SDS011;62866;55.776;37.496;2023-04-30T10:50:04;0.88;;;0.80;;
54805;SDS011;62866;55.776;37.496;2023-04-30T10:52:32;4.20;;;1.70;;
54805;SDS011;62866;55.776;37.496;2023-04-30T10:54:59;2.00;;;1.40;;
54805;SDS011;62866;55.776;37.496;2023-04-30T10:57:29;1.67;;;1.08;;
54805;SDS011;62866;55.776;37.496;2023-04-30T11:02:42;0.70;;;0.70;;
54805;SDS011;62866;55.776;37.496;2023-04-30T11:05:11;2.47;;;1.65;;
54805;SDS011;62866;55.776;37.496;2023-04-30T11:10:14;2.58;;;1.48;;
54805;SDS011;62866;55.776;37.496;2023-04-30T11:12:40;3.58;;;1.05;;
54805;SDS011;62866;55.776;37.496;2023-04-30T11:15:13;1.35;;;1.20;;
54805;SDS011;62866;55.776;37.496;2023-04-30T11:17:44;2.03;;;1.10;;
54805;SDS011;62866;55.776;37.496;2023-04-30T11:20:13;1.45;;;1.00;;
54805;SDS011;62866;55.776;37.496;2023-04-30T11:22:43;1.15;;;0.95;;
54805;SDS011;62866;55.776;37.496;2023-04-30T11:25:09;1.00;;;0.80;;
54805;SDS011;62866;55.776;37.496;2023-04-30T11:27:42;2.55;;;1.20;;
54805;SDS011;62866;55.776;37.496;2023-04-30T11:30:15;3.35;;;1.52;;
54805;SDS011;62866;55.776;37.496;2023-04-30T11:32:44;1.42;;;1.13;;
54805;SDS011;62866;55.776;37.496;2023-04-30T11:35:12;1.48;;;0.90;;
54805;SDS011;62866;55.776;37.496;2023-04-30T11:37:41;1.38;;;1.27;;
54805;SDS011;62866;55.776;37.496;2023-04-30T11:40:12;1.98;;;1.30;;
54805;SDS011;62866;55.776;37.496;2023-04-30T11:42:39;2.28;;;1.00;;
54805;SDS011;62866;55.776;37.496;2023-04-30T11:45:09;1.77;;;1.27;;
54805;SDS011;62866;55.776;37.496;2023-04-30T11:50:10;1.83;;;1.10;;
54805;SDS011;62866;55.776;37.496;2023-04-30T11:52:50;1.52;;;1.25;;
54805;SDS011;62866;55.776;37.496;2023-04-30T11:55:19;2.05;;;1.17;;
54805;SDS011;62866;55.776;37.496;2023-04-30T11:57:47;1.52;;;1.00;;
54805;SDS011;62866;55.776;37.496;2023-04-30T12:00:17;2.88;;;1.27;;
54805;SDS011;62866;55.776;37.496;2023-04-30T12:02:46;1.55;;;1.25;;
54805;SDS011;62866;55.776;37.496;2023-04-30T12:05:16;2.15;;;1.13;;
54805;SDS011;62866;55.776;37.496;2023-04-30T12:08:04;2.75;;;1.30;;
54805;SDS011;62866;55.776;37.496;2023-04-30T12:10:33;2.05;;;1.50;;
54805;SDS011;62866;55.776;37.496;2023-04-30T12:12:59;5.78;;;1.73;;
54805;SDS011;62866;55.776;37.496;2023-04-30T12:15:25;1.95;;;1.30;;
54805;SDS011;62866;55.776;37.496;2023-04-30T12:17:51;5.20;;;1.10;;
54805;SDS011;62866;55.776;37.496;2023-04-30T12:20:18;2.67;;;2.08;;
54805;SDS011;62866;55.776;37.496;2023-04-30T12:22:46;1.65;;;1.10;;
54805;SDS011;62866;55.776;37.496;2023-04-30T12:25:13;2.83;;;1.10;;
54805;SDS011;62866;55.776;37.496;2023-04-30T12:27:44;2.65;;;1.48;;
54805;SDS011;62866;55.776;37.496;2023-04-30T12:30:10;2.08;;;1.30;;
54805;SDS011;62866;55.776;37.496;2023-04-30T12:32:41;2.80;;;1.10;;
54805;SDS011;62866;55.776;37.496;2023-04-30T12:35:12;1.48;;;1.05;;
54805;SDS011;62866;55.776;37.496;2023-04-30T12:37:42;1.27;;;1.17;;
54805;SDS011;62866;55.776;37.496;2023-04-30T12:40:09;2.38;;;1.35;;
54805;SDS011;62866;55.776;37.496;2023-04-30T12:42:36;3.05;;;1.63;;
54805;SDS011;62866;55.776;37.496;2023-04-30T12:45:02;1.85;;;1.20;;
54805;SDS011;62866;55.776;37.496;2023-04-30T12:47:28;1.95;;;1.10;;
54805;SDS011;62866;55.776;37.496;2023-04-30T12:49:54;3.33;;;1.50;;
54805;SDS011;62866;55.776;37.496;2023-04-30T12:52:22;3.65;;;1.38;;
54805;SDS011;62866;55.776;37.496;2023-04-30T12:54:49;1.50;;;1.20;;
54805;SDS011;62866;55.776;37.496;2023-04-30T12:57:15;2.15;;;1.50;;
54805;SDS011;62866;55.776;37.496;2023-04-30T13:02:18;3.50;;;1.48;;
54805;SDS011;62866;55.776;37.496;2023-04-30T13:04:48;3.63;;;1.60;;
54805;SDS011;62866;55.776;37.496;2023-04-30T13:07:13;1.58;;;0.82;;
54805;SDS011;62866;55.776;37.496;2023-04-30T13:09:39;4.97;;;1.77;;
54805;SDS011;62866;55.776;37.496;2023-04-30T13:12:05;1.52;;;1.08;;
54805;SDS011;62866;55.776;37.496;2023-04-30T13:14:31;4.03;;;1.38;;
54805;SDS011;62866;55.776;37.496;2023-04-30T13:16:56;4.00;;;1.05;;
54805;SDS011;62866;55.776;37.496;2023-04-30T13:19:22;2.38;;;1.60;;
54805;SDS011;62866;55.776;37.496;2023-04-30T13:21:48;2.95;;;1.40;;
54805;SDS011;62866;55.776;37.496;2023-04-30T13:24:14;5.13;;;1.88;;
54805;SDS011;62866;55.776;37.496;2023-04-30T13:26:41;4.00;;;1.75;;
54805;SDS011;62866;55.776;37.496;2023-04-30T13:29:07;2.58;;;1.40;;
54805;SDS011;62866;55.776;37.496;2023-04-30T13:31:33;2.38;;;1.67;;
54805;SDS011;62866;55.776;37.496;2023-04-30T13:34:00;2.92;;;1.58;;
54805;SDS011;62866;55.776;37.496;2023-04-30T13:36:26;1.88;;;1.13;;
54805;SDS011;62866;55.776;37.496;2023-04-30T13:38:52;3.58;;;1.30;;
54805;SDS011;62866;55.776;37.496;2023-04-30T13:41:17;1.55;;;1.02;;
54805;SDS011;62866;55.776;37.496;2023-04-30T13:43:44;1.20;;;0.88;;
54805;SDS011;62866;55.776;37.496;2023-04-30T13:46:11;2.90;;;1.70;;
54805;SDS011;62866;55.776;37.496;2023-04-30T13:48:37;4.45;;;1.83;;
54805;SDS011;62866;55.776;37.496;2023-04-30T13:51:03;2.47;;;1.35;;
54805;SDS011;62866;55.776;37.496;2023-04-30T13:53:29;1.25;;;0.98;;
54805;SDS011;62866;55.776;37.496;2023-04-30T13:55:58;4.25;;;1.30;;
54805;SDS011;62866;55.776;37.496;2023-04-30T13:58:24;1.65;;;1.30;;
54805;SDS011;62866;55.776;37.496;2023-04-30T14:00:50;1.95;;;1.40;;
54805;SDS011;62866;55.776;37.496;2023-04-30T14:03:17;1.88;;;1.15;;
54805;SDS011;62866;55.776;37.496;2023-04-30T14:05:43;2.65;;;1.70;;
54805;SDS011;62866;55.776;37.496;2023-04-30T14:10:55;2.88;;;1.20;;
54805;SDS011;62866;55.776;37.496;2023-04-30T14:13:20;1.75;;;0.93;;
54805;SDS011;62866;55.776;37.496;2023-04-30T14:15:46;3.55;;;1.40;;
54805;SDS011;62866;55.776;37.496;2023-04-30T14:18:14;4.47;;;1.75;;
54805;SDS011;62866;55.776;37.496;2023-04-30T14:20:39;2.63;;;1.65;;
54805;SDS011;62866;55.776;37.496;2023-04-30T14:23:05;1.58;;;1.13;;
54805;SDS011;62866;55.776;37.496;2023-04-30T14:25:31;2.40;;;1.50;;
54805;SDS011;62866;55.776;37.496;2023-04-30T14:27:56;4.88;;;1.70;;
54805;SDS011;62866;55.776;37.496;2023-04-30T14:30:22;2.65;;;1.40;;
54805;SDS011;62866;55.776;37.496;2023-04-30T14:32:48;2.00;;;1.05;;
54805;SDS011;62866;55.776;37.496;2023-04-30T14:35:13;4.55;;;1.85;;
54805;SDS011;62866;55.776;37.496;2023-04-30T14:37:39;4.10;;;1.70;;
54805;SDS011;62866;55.776;37.496;2023-04-30T14:40:04;23.88;;;12.80;;
54805;SDS011;62866;55.776;37.496;2023-04-30T14:42:31;3.47;;;1.70;;
54805;SDS011;62866;55.776;37.496;2023-04-30T14:44:57;2.40;;;1.58;;
54805;SDS011;62866;55.776;37.496;2023-04-30T14:47:23;2.13;;;0.80;;
54805;SDS011;62866;55.776;37.496;2023-04-30T14:49:51;2.50;;;1.60;;
54805;SDS011;62866;55.776;37.496;2023-04-30T14:52:17;3.00;;;1.70;;
54805;SDS011;62866;55.776;37.496;2023-04-30T14:54:44;2.17;;;1.67;;
54805;SDS011;62866;55.776;37.496;2023-04-30T14:57:12;2.85;;;1.35;;
54805;SDS011;62866;55.776;37.496;2023-04-30T14:59:41;3.08;;;1.80;;
54805;SDS011;62866;55.776;37.496;2023-04-30T15:02:07;1.23;;;0.95;;
54805;SDS011;62866;55.776;37.496;2023-04-30T15:04:33;3.10;;;1.65;;
54805;SDS011;62866;55.776;37.496;2023-04-30T15:06:58;3.00;;;1.63;;
54805;SDS011;62866;55.776;37.496;2023-04-30T15:09:24;3.00;;;1.90;;